sensor_id;sensor_type;location;lat;lon;timestamp;P1;durP1;ratioP1;P2;durP2;ratioP2
51122;SDS011;37162;41.724;13.346;2023-11-19T00:01:05;2.00;;;1.30;;
51122;SDS011;37162;41.724;13.346;2023-11-19T00:03:31;2.28;;;1.10;;
51122;SDS011;37162;41.724;13.346;2023-11-19T00:05:58;1.08;;;0.98;;
51122;SDS011;37162;41.724;13.346;2023-11-19T00:08:24;1.17;;;0.90;;
51122;SDS011;37162;41.724;13.346;2023-11-19T00:10:50;2.38;;;1.08;;
51122;SDS011;37162;41.724;13.346;2023-11-19T00:13:16;1.70;;;1.17;;
51122;SDS011;37162;41.724;13.346;2023-11-19T00:15:41;1.25;;;1.00;;
51122;SDS011;37162;41.724;13.346;2023-11-19T00:18:07;1.17;;;1.05;;
51122;SDS011;37162;41.724;13.346;2023-11-19T00:20:33;1.38;;;1.15;;
51122;SDS011;37162;41.724;13.346;2023-11-19T00:22:58;1.48;;;1.05;;
51122;SDS011;37162;41.724;13.346;2023-11-19T00:25:23;0.73;;;0.73;;
51122;SDS011;37162;41.724;13.346;2023-11-19T00:27:50;1.52;;;1.00;;
51122;SDS011;37162;41.724;13.346;2023-11-19T00:30:16;1.50;;;1.10;;
51122;SDS011;37162;41.724;13.346;2023-11-19T00:32:42;1.02;;;0.90;;
51122;SDS011;37162;41.724;13.346;2023-11-19T00:35:08;2.00;;;1.00;;
51122;SDS011;37162;41.724;13.346;2023-11-19T00:37:39;1.33;;;0.88;;
51122;SDS011;37162;41.724;13.346;2023-11-19T00:40:05;1.30;;;0.80;;
51122;SDS011;37162;41.724;13.346;2023-11-19T00:42:31;1.35;;;1.00;;
51122;SDS011;37162;41.724;13.346;2023-11-19T00:44:56;0.88;;;0.80;;
51122;SDS011;37162;41.724;13.346;2023-11-19T00:47:23;1.08;;;0.88;;
51122;SDS011;37162;41.724;13.346;2023-11-19T00:49:48;2.78;;;1.25;;
51122;SDS011;37162;41.724;13.346;2023-11-19T00:52:14;3.15;;;1.00;;
51122;SDS011;37162;41.724;13.346;2023-11-19T00:54:40;1.35;;;0.95;;
51122;SDS011;37162;41.724;13.346;2023-11-19T00:57:06;0.82;;;0.80;;
51122;SDS011;37162;41.724;13.346;2023-11-19T00:59:31;0.60;;;0.60;;
51122;SDS011;37162;41.724;13.346;2023-11-19T01:01:57;2.40;;;0.93;;
51122;SDS011;37162;41.724;13.346;2023-11-19T01:04:24;1.40;;;0.95;;
51122;SDS011;37162;41.724;13.346;2023-11-19T01:06:49;1.33;;;1.00;;
51122;SDS011;37162;41.724;13.346;2023-11-19T01:09:15;1.75;;;0.98;;
51122;SDS011;37162;41.724;13.346;2023-11-19T01:11:40;1.10;;;1.00;;
51122;SDS011;37162;41.724;13.346;2023-11-19T01:14:06;1.00;;;0.80;;
51122;SDS011;37162;41.724;13.346;2023-11-19T01:16:31;1.60;;;1.00;;
51122;SDS011;37162;41.724;13.346;2023-11-19T01:18:57;0.88;;;0.80;;
51122;SDS011;37162;41.724;13.346;2023-11-19T01:21:22;1.23;;;0.90;;
51122;SDS011;37162;41.724;13.346;2023-11-19T01:23:48;1.02;;;0.70;;
51122;SDS011;37162;41.724;13.346;2023-11-19T01:26:13;3.53;;;0.80;;
51122;SDS011;37162;41.724;13.346;2023-11-19T01:28:39;1.70;;;0.90;;
51122;SDS011;37162;41.724;13.346;2023-11-19T01:31:08;0.77;;;0.77;;
51122;SDS011;37162;41.724;13.346;2023-11-19T01:33:33;1.23;;;0.63;;
51122;SDS011;37162;41.724;13.346;2023-11-19T01:36:01;1.17;;;0.98;;
51122;SDS011;37162;41.724;13.346;2023-11-19T01:38:26;0.77;;;0.77;;
51122;SDS011;37162;41.724;13.346;2023-11-19T01:40:55;0.75;;;0.75;;
51122;SDS011;37162;41.724;13.346;2023-11-19T01:43:34;0.90;;;0.90;;
51122;SDS011;37162;41.724;13.346;2023-11-19T01:46:06;0.80;;;0.80;;
51122;SDS011;37162;41.724;13.346;2023-11-19T01:48:35;0.80;;;0.80;;
51122;SDS011;37162;41.724;13.346;2023-11-19T01:51:05;0.82;;;0.68;;
51122;SDS011;37162;41.724;13.346;2023-11-19T01:53:32;0.80;;;0.80;;
51122;SDS011;37162;41.724;13.346;2023-11-19T01:55:59;1.52;;;0.73;;
51122;SDS011;37162;41.724;13.346;2023-11-19T01:58:26;1.42;;;0.88;;
51122;SDS011;37162;41.724;13.346;2023-11-19T02:00:52;0.82;;;0.82;;
51122;SDS011;37162;41.724;13.346;2023-11-19T02:03:18;1.17;;;0.80;;
51122;SDS011;37162;41.724;13.346;2023-11-19T02:05:45;0.77;;;0.77;;
51122;SDS011;37162;41.724;13.346;2023-11-19T02:08:14;0.60;;;0.60;;
51122;SDS011;37162;41.724;13.346;2023-11-19T02:10:39;2.88;;;0.80;;
51122;SDS011;37162;41.724;13.346;2023-11-19T02:13:05;0.70;;;0.70;;
51122;SDS011;37162;41.724;13.346;2023-11-19T02:15:31;1.35;;;0.82;;
51122;SDS011;37162;41.724;13.346;2023-11-19T02:17:57;1.27;;;0.75;;
51122;SDS011;37162;41.724;13.346;2023-11-19T02:20:43;0.70;;;0.70;;
51122;SDS011;37162;41.724;13.346;2023-11-19T02:23:08;1.80;;;1.13;;
51122;SDS011;37162;41.724;13.346;2023-11-19T02:25:34;0.63;;;0.63;;
51122;SDS011;37162;41.724;13.346;2023-11-19T02:28:00;0.70;;;0.70;;
51122;SDS011;37162;41.724;13.346;2023-11-19T02:30:27;1.17;;;0.77;;
51122;SDS011;37162;41.724;13.346;2023-11-19T02:32:56;1.17;;;0.68;;
51122;SDS011;37162;41.724;13.346;2023-11-19T02:35:28;0.80;;;0.65;;
51122;SDS011;37162;41.724;13.346;2023-11-19T02:37:57;0.65;;;0.60;;
51122;SDS011;37162;41.724;13.346;2023-11-19T02:40:24;0.75;;;0.75;;
51122;SDS011;37162;41.724;13.346;2023-11-19T02:42:50;0.60;;;0.60;;
51122;SDS011;37162;41.724;13.346;2023-11-19T02:45:16;0.65;;;0.60;;
51122;SDS011;37162;41.724;13.346;2023-11-19T02:47:42;1.23;;;0.73;;
51122;SDS011;37162;41.724;13.346;2023-11-19T02:50:11;0.80;;;0.77;;
51122;SDS011;37162;41.724;13.346;2023-11-19T02:52:44;0.80;;;0.70;;
51122;SDS011;37162;41.724;13.346;2023-11-19T02:55:11;1.05;;;0.77;;
51122;SDS011;37162;41.724;13.346;2023-11-19T02:57:39;0.60;;;0.60;;
51122;SDS011;37162;41.724;13.346;2023-11-19T03:00:15;1.05;;;0.80;;
51122;SDS011;37162;41.724;13.346;2023-11-19T03:02:42;0.60;;;0.60;;
51122;SDS011;37162;41.724;13.346;2023-11-19T03:05:13;0.55;;;0.55;;
51122;SDS011;37162;41.724;13.346;2023-11-19T03:07:43;0.63;;;0.63;;
51122;SDS011;37162;41.724;13.346;2023-11-19T03:10:12;1.45;;;0.80;;
51122;SDS011;37162;41.724;13.346;2023-11-19T03:12:41;0.50;;;0.50;;
51122;SDS011;37162;41.724;13.346;2023-11-19T03:15:07;2.35;;;1.00;;
51122;SDS011;37162;41.724;13.346;2023-11-19T03:17:39;1.95;;;1.17;;
51122;SDS011;37162;41.724;13.346;2023-11-19T03:20:06;0.90;;;0.70;;
51122;SDS011;37162;41.724;13.346;2023-11-19T03:22:39;0.82;;;0.70;;
51122;SDS011;37162;41.724;13.346;2023-11-19T03:25:06;0.65;;;0.65;;
51122;SDS011;37162;41.724;13.346;2023-11-19T03:27:34;0.60;;;0.60;;
51122;SDS011;37162;41.724;13.346;2023-11-19T03:30:01;0.65;;;0.50;;
51122;SDS011;37162;41.724;13.346;2023-11-19T03:32:29;0.73;;;0.63;;
51122;SDS011;37162;41.724;13.346;2023-11-19T03:40:11;1.40;;;0.70;;
51122;SDS011;37162;41.724;13.346;2023-11-19T03:42:36;0.80;;;0.80;;
51122;SDS011;37162;41.724;13.346;2023-11-19T03:45:02;0.52;;;0.50;;
51122;SDS011;37162;41.724;13.346;2023-11-19T03:47:30;1.00;;;0.77;;
51122;SDS011;37162;41.724;13.346;2023-11-19T03:49:56;0.75;;;0.60;;
51122;SDS011;37162;41.724;13.346;2023-11-19T03:52:21;0.93;;;0.70;;
51122;SDS011;37162;41.724;13.346;2023-11-19T03:54:47;0.65;;;0.60;;
51122;SDS011;37162;41.724;13.346;2023-11-19T03:57:12;1.35;;;0.68;;
51122;SDS011;37162;41.724;13.346;2023-11-19T03:59:38;1.13;;;0.70;;
51122;SDS011;37162;41.724;13.346;2023-11-19T04:02:04;0.40;;;0.40;;
51122;SDS011;37162;41.724;13.346;2023-11-19T04:04:30;0.40;;;0.40;;
51122;SDS011;37162;41.724;13.346;2023-11-19T04:06:55;0.60;;;0.60;;
51122;SDS011;37162;41.724;13.346;2023-11-19T04:09:21;1.50;;;0.70;;
51122;SDS011;37162;41.724;13.346;2023-11-19T04:11:47;1.02;;;0.52;;
51122;SDS011;37162;41.724;13.346;2023-11-19T04:14:13;0.70;;;0.70;;
51122;SDS011;37162;41.724;13.346;2023-11-19T04:16:39;0.57;;;0.52;;
51122;SDS011;37162;41.724;13.346;2023-11-19T04:19:05;0.55;;;0.50;;
51122;SDS011;37162;41.724;13.346;2023-11-19T04:21:31;1.30;;;0.80;;
51122;SDS011;37162;41.724;13.346;2023-11-19T04:23:57;0.50;;;0.50;;
51122;SDS011;37162;41.724;13.346;2023-11-19T04:26:22;1.08;;;0.63;;
51122;SDS011;37162;41.724;13.346;2023-11-19T04:28:48;0.60;;;0.60;;
51122;SDS011;37162;41.724;13.346;2023-11-19T04:31:14;1.05;;;0.77;;
51122;SDS011;37162;41.724;13.346;2023-11-19T04:33:41;0.43;;;0.43;;
51122;SDS011;37162;41.724;13.346;2023-11-19T04:36:07;1.00;;;0.75;;
51122;SDS011;37162;41.724;13.346;2023-11-19T04:38:33;1.17;;;0.70;;
51122;SDS011;37162;41.724;13.346;2023-11-19T04:40:59;0.50;;;0.50;;
51122;SDS011;37162;41.724;13.346;2023-11-19T04:43:25;0.50;;;0.50;;
51122;SDS011;37162;41.724;13.346;2023-11-19T04:45:50;1.55;;;0.68;;
51122;SDS011;37162;41.724;13.346;2023-11-19T04:48:16;0.60;;;0.43;;
51122;SDS011;37162;41.724;13.346;2023-11-19T04:50:41;1.45;;;0.60;;
51122;SDS011;37162;41.724;13.346;2023-11-19T04:53:07;0.60;;;0.60;;
51122;SDS011;37162;41.724;13.346;2023-11-19T04:55:32;0.85;;;0.50;;
51122;SDS011;37162;41.724;13.346;2023-11-19T04:57:57;0.50;;;0.50;;
51122;SDS011;37162;41.724;13.346;2023-11-19T05:00:23;0.70;;;0.70;;
51122;SDS011;37162;41.724;13.346;2023-11-19T05:02:48;0.50;;;0.50;;
51122;SDS011;37162;41.724;13.346;2023-11-19T05:05:15;0.80;;;0.55;;
51122;SDS011;37162;41.724;13.346;2023-11-19T05:07:41;0.52;;;0.52;;
51122;SDS011;37162;41.724;13.346;2023-11-19T05:10:06;1.52;;;0.50;;
51122;SDS011;37162;41.724;13.346;2023-11-19T05:12:32;0.80;;;0.75;;
51122;SDS011;37162;41.724;13.346;2023-11-19T05:14:58;1.42;;;0.75;;
51122;SDS011;37162;41.724;13.346;2023-11-19T05:17:23;0.65;;;0.60;;
51122;SDS011;37162;41.724;13.346;2023-11-19T05:19:49;0.68;;;0.55;;
51122;SDS011;37162;41.724;13.346;2023-11-19T05:22:14;0.50;;;0.50;;
51122;SDS011;37162;41.724;13.346;2023-11-19T05:24:40;0.82;;;0.52;;
51122;SDS011;37162;41.724;13.346;2023-11-19T05:27:06;0.68;;;0.68;;
51122;SDS011;37162;41.724;13.346;2023-11-19T05:29:32;0.68;;;0.63;;
51122;SDS011;37162;41.724;13.346;2023-11-19T05:31:58;1.23;;;0.98;;
51122;SDS011;37162;41.724;13.346;2023-11-19T05:34:24;0.70;;;0.60;;
51122;SDS011;37162;41.724;13.346;2023-11-19T05:36:50;15.15;;;1.45;;
51122;SDS011;37162;41.724;13.346;2023-11-19T05:39:16;26.83;;;1.45;;
51122;SDS011;37162;41.724;13.346;2023-11-19T05:41:43;7.28;;;1.20;;
51122;SDS011;37162;41.724;13.346;2023-11-19T05:44:09;22.30;;;2.70;;
51122;SDS011;37162;41.724;13.346;2023-11-19T05:46:34;7.13;;;1.20;;
51122;SDS011;37162;41.724;13.346;2023-11-19T05:49:05;9.38;;;0.90;;
51122;SDS011;37162;41.724;13.346;2023-11-19T05:51:30;6.70;;;1.20;;
51122;SDS011;37162;41.724;13.346;2023-11-19T05:53:56;7.20;;;1.63;;
51122;SDS011;37162;41.724;13.346;2023-11-19T05:56:22;2.92;;;1.38;;
51122;SDS011;37162;41.724;13.346;2023-11-19T05:58:48;4.63;;;1.20;;
51122;SDS011;37162;41.724;13.346;2023-11-19T06:01:14;5.78;;;1.17;;
51122;SDS011;37162;41.724;13.346;2023-11-19T06:03:40;6.30;;;1.85;;
51122;SDS011;37162;41.724;13.346;2023-11-19T06:06:05;1.88;;;1.27;;
51122;SDS011;37162;41.724;13.346;2023-11-19T06:08:31;4.13;;;1.25;;
51122;SDS011;37162;41.724;13.346;2023-11-19T06:10:57;2.95;;;1.38;;
51122;SDS011;37162;41.724;13.346;2023-11-19T06:13:23;5.93;;;1.23;;
51122;SDS011;37162;41.724;13.346;2023-11-19T06:15:48;2.35;;;1.33;;
51122;SDS011;37162;41.724;13.346;2023-11-19T06:18:15;4.60;;;1.23;;
51122;SDS011;37162;41.724;13.346;2023-11-19T06:20:41;2.63;;;1.30;;
51122;SDS011;37162;41.724;13.346;2023-11-19T06:23:07;2.35;;;1.40;;
51122;SDS011;37162;41.724;13.346;2023-11-19T06:25:32;3.60;;;1.90;;
51122;SDS011;37162;41.724;13.346;2023-11-19T06:28:00;5.53;;;1.45;;
51122;SDS011;37162;41.724;13.346;2023-11-19T06:30:25;1.65;;;1.40;;
51122;SDS011;37162;41.724;13.346;2023-11-19T06:32:53;3.47;;;1.45;;
51122;SDS011;37162;41.724;13.346;2023-11-19T06:35:18;1.30;;;1.17;;
51122;SDS011;37162;41.724;13.346;2023-11-19T06:37:44;3.88;;;1.92;;
51122;SDS011;37162;41.724;13.346;2023-11-19T06:40:09;4.10;;;1.33;;
51122;SDS011;37162;41.724;13.346;2023-11-19T06:42:37;2.28;;;1.08;;
51122;SDS011;37162;41.724;13.346;2023-11-19T06:45:03;1.27;;;1.08;;
51122;SDS011;37162;41.724;13.346;2023-11-19T06:47:29;2.63;;;1.15;;
51122;SDS011;37162;41.724;13.346;2023-11-19T06:49:55;1.20;;;1.10;;
51122;SDS011;37162;41.724;13.346;2023-11-19T06:52:20;1.42;;;1.20;;
51122;SDS011;37162;41.724;13.346;2023-11-19T06:54:46;1.73;;;1.00;;
51122;SDS011;37162;41.724;13.346;2023-11-19T06:57:12;1.88;;;1.08;;
51122;SDS011;37162;41.724;13.346;2023-11-19T06:59:38;2.47;;;1.30;;
51122;SDS011;37162;41.724;13.346;2023-11-19T07:02:04;1.52;;;1.20;;
51122;SDS011;37162;41.724;13.346;2023-11-19T07:04:31;1.88;;;1.00;;
51122;SDS011;37162;41.724;13.346;2023-11-19T07:06:58;1.60;;;1.20;;
51122;SDS011;37162;41.724;13.346;2023-11-19T07:09:24;2.15;;;0.90;;
51122;SDS011;37162;41.724;13.346;2023-11-19T07:11:50;0.77;;;0.77;;
51122;SDS011;37162;41.724;13.346;2023-11-19T07:14:17;1.77;;;1.08;;
51122;SDS011;37162;41.724;13.346;2023-11-19T07:16:43;1.17;;;1.00;;
51122;SDS011;37162;41.724;13.346;2023-11-19T07:19:09;0.90;;;0.65;;
51122;SDS011;37162;41.724;13.346;2023-11-19T07:21:35;0.73;;;0.73;;
51122;SDS011;37162;41.724;13.346;2023-11-19T07:24:04;1.30;;;0.88;;
51122;SDS011;37162;41.724;13.346;2023-11-19T07:26:30;0.80;;;0.80;;
51122;SDS011;37162;41.724;13.346;2023-11-19T07:28:56;1.48;;;1.02;;
51122;SDS011;37162;41.724;13.346;2023-11-19T07:31:22;1.85;;;0.90;;
51122;SDS011;37162;41.724;13.346;2023-11-19T07:33:48;2.38;;;1.20;;
51122;SDS011;37162;41.724;13.346;2023-11-19T07:36:14;2.67;;;0.90;;
51122;SDS011;37162;41.724;13.346;2023-11-19T07:38:39;1.60;;;1.08;;
51122;SDS011;37162;41.724;13.346;2023-11-19T07:41:05;1.52;;;0.82;;
51122;SDS011;37162;41.724;13.346;2023-11-19T07:43:32;0.85;;;0.80;;
51122;SDS011;37162;41.724;13.346;2023-11-19T07:45:57;0.77;;;0.73;;
51122;SDS011;37162;41.724;13.346;2023-11-19T07:48:24;2.55;;;1.42;;
51122;SDS011;37162;41.724;13.346;2023-11-19T07:50:51;1.27;;;0.98;;
51122;SDS011;37162;41.724;13.346;2023-11-19T07:53:18;1.83;;;1.10;;
51122;SDS011;37162;41.724;13.346;2023-11-19T07:55:43;1.17;;;1.08;;
51122;SDS011;37162;41.724;13.346;2023-11-19T07:58:09;1.17;;;0.88;;
51122;SDS011;37162;41.724;13.346;2023-11-19T08:00:35;2.80;;;1.20;;
51122;SDS011;37162;41.724;13.346;2023-11-19T08:03:02;3.10;;;1.20;;
51122;SDS011;37162;41.724;13.346;2023-11-19T08:05:28;2.53;;;1.60;;
51122;SDS011;37162;41.724;13.346;2023-11-19T08:07:53;2.88;;;2.13;;
51122;SDS011;37162;41.724;13.346;2023-11-19T08:10:19;3.15;;;2.08;;
51122;SDS011;37162;41.724;13.346;2023-11-19T08:12:45;4.15;;;2.38;;
51122;SDS011;37162;41.724;13.346;2023-11-19T08:15:10;3.10;;;1.98;;
51122;SDS011;37162;41.724;13.346;2023-11-19T08:17:36;4.53;;;2.25;;
51122;SDS011;37162;41.724;13.346;2023-11-19T08:20:02;4.30;;;2.20;;
51122;SDS011;37162;41.724;13.346;2023-11-19T08:22:30;3.03;;;2.30;;
51122;SDS011;37162;41.724;13.346;2023-11-19T08:24:55;4.15;;;2.05;;
51122;SDS011;37162;41.724;13.346;2023-11-19T08:27:21;4.38;;;2.30;;
51122;SDS011;37162;41.724;13.346;2023-11-19T08:29:53;5.68;;;2.50;;
51122;SDS011;37162;41.724;13.346;2023-11-19T08:32:20;3.65;;;2.33;;
51122;SDS011;37162;41.724;13.346;2023-11-19T08:34:46;4.72;;;2.35;;
51122;SDS011;37162;41.724;13.346;2023-11-19T08:37:11;2.95;;;1.98;;
51122;SDS011;37162;41.724;13.346;2023-11-19T08:39:38;4.13;;;2.38;;
51122;SDS011;37162;41.724;13.346;2023-11-19T08:42:03;4.57;;;2.17;;
51122;SDS011;37162;41.724;13.346;2023-11-19T08:44:29;4.15;;;2.45;;
51122;SDS011;37162;41.724;13.346;2023-11-19T08:46:54;4.65;;;2.72;;
51122;SDS011;37162;41.724;13.346;2023-11-19T08:49:20;4.80;;;3.03;;
51122;SDS011;37162;41.724;13.346;2023-11-19T08:51:45;5.93;;;3.55;;
51122;SDS011;37162;41.724;13.346;2023-11-19T08:54:11;5.53;;;3.15;;
51122;SDS011;37162;41.724;13.346;2023-11-19T08:56:37;6.72;;;3.30;;
51122;SDS011;37162;41.724;13.346;2023-11-19T08:59:04;7.35;;;3.50;;
51122;SDS011;37162;41.724;13.346;2023-11-19T09:01:30;6.30;;;3.15;;
51122;SDS011;37162;41.724;13.346;2023-11-19T09:03:55;6.60;;;3.72;;
51122;SDS011;37162;41.724;13.346;2023-11-19T09:06:21;5.93;;;3.78;;
51122;SDS011;37162;41.724;13.346;2023-11-19T09:08:47;11.07;;;4.32;;
51122;SDS011;37162;41.724;13.346;2023-11-19T09:11:12;6.90;;;4.07;;
51122;SDS011;37162;41.724;13.346;2023-11-19T09:13:38;7.60;;;4.07;;
51122;SDS011;37162;41.724;13.346;2023-11-19T09:16:03;8.23;;;4.15;;
51122;SDS011;37162;41.724;13.346;2023-11-19T09:18:29;10.25;;;3.97;;
51122;SDS011;37162;41.724;13.346;2023-11-19T09:20:55;7.47;;;4.45;;
51122;SDS011;37162;41.724;13.346;2023-11-19T09:23:21;8.55;;;4.40;;
51122;SDS011;37162;41.724;13.346;2023-11-19T09:25:46;7.75;;;4.30;;
51122;SDS011;37162;41.724;13.346;2023-11-19T09:28:12;7.05;;;4.20;;
51122;SDS011;37162;41.724;13.346;2023-11-19T09:30:39;8.20;;;4.22;;
51122;SDS011;37162;41.724;13.346;2023-11-19T09:33:05;9.18;;;4.97;;
51122;SDS011;37162;41.724;13.346;2023-11-19T09:35:30;7.70;;;4.72;;
51122;SDS011;37162;41.724;13.346;2023-11-19T09:37:56;6.25;;;4.22;;
51122;SDS011;37162;41.724;13.346;2023-11-19T09:40:21;7.75;;;4.85;;
51122;SDS011;37162;41.724;13.346;2023-11-19T09:42:47;6.93;;;4.15;;
51122;SDS011;37162;41.724;13.346;2023-11-19T09:45:16;8.68;;;4.43;;
51122;SDS011;37162;41.724;13.346;2023-11-19T09:47:43;10.30;;;5.32;;
51122;SDS011;37162;41.724;13.346;2023-11-19T09:50:11;10.25;;;5.85;;
51122;SDS011;37162;41.724;13.346;2023-11-19T09:52:43;10.48;;;5.63;;
51122;SDS011;37162;41.724;13.346;2023-11-19T09:55:10;7.93;;;5.10;;
51122;SDS011;37162;41.724;13.346;2023-11-19T09:57:35;9.52;;;5.47;;
51122;SDS011;37162;41.724;13.346;2023-11-19T10:00:03;8.30;;;5.28;;
51122;SDS011;37162;41.724;13.346;2023-11-19T10:02:33;11.65;;;5.35;;
51122;SDS011;37162;41.724;13.346;2023-11-19T10:05:04;10.98;;;4.88;;
51122;SDS011;37162;41.724;13.346;2023-11-19T10:07:32;6.60;;;4.88;;
51122;SDS011;37162;41.724;13.346;2023-11-19T10:10:02;7.55;;;4.80;;
51122;SDS011;37162;41.724;13.346;2023-11-19T10:12:32;6.50;;;4.53;;
51122;SDS011;37162;41.724;13.346;2023-11-19T10:14:58;8.65;;;5.13;;
51122;SDS011;37162;41.724;13.346;2023-11-19T10:17:28;6.70;;;4.45;;
51122;SDS011;37162;41.724;13.346;2023-11-19T10:19:56;7.88;;;4.63;;
51122;SDS011;37162;41.724;13.346;2023-11-19T10:22:22;6.05;;;4.63;;
51122;SDS011;37162;41.724;13.346;2023-11-19T10:24:48;8.68;;;5.13;;
51122;SDS011;37162;41.724;13.346;2023-11-19T10:27:13;9.05;;;4.68;;
51122;SDS011;37162;41.724;13.346;2023-11-19T10:29:39;8.65;;;5.05;;
51122;SDS011;37162;41.724;13.346;2023-11-19T10:32:05;7.85;;;5.38;;
51122;SDS011;37162;41.724;13.346;2023-11-19T10:34:31;10.40;;;5.47;;
51122;SDS011;37162;41.724;13.346;2023-11-19T10:36:56;9.70;;;5.65;;
51122;SDS011;37162;41.724;13.346;2023-11-19T10:39:22;8.02;;;5.20;;
51122;SDS011;37162;41.724;13.346;2023-11-19T10:41:49;7.47;;;4.97;;
51122;SDS011;37162;41.724;13.346;2023-11-19T10:44:31;7.50;;;5.22;;
51122;SDS011;37162;41.724;13.346;2023-11-19T10:46:58;9.10;;;6.03;;
51122;SDS011;37162;41.724;13.346;2023-11-19T10:49:24;8.45;;;5.25;;
51122;SDS011;37162;41.724;13.346;2023-11-19T10:51:50;9.15;;;5.35;;
51122;SDS011;37162;41.724;13.346;2023-11-19T10:54:18;7.32;;;4.50;;
51122;SDS011;37162;41.724;13.346;2023-11-19T10:56:44;8.48;;;5.18;;
51122;SDS011;37162;41.724;13.346;2023-11-19T10:59:12;6.95;;;4.45;;
51122;SDS011;37162;41.724;13.346;2023-11-19T11:01:45;7.22;;;4.55;;
51122;SDS011;37162;41.724;13.346;2023-11-19T11:04:22;7.75;;;4.53;;
51122;SDS011;37162;41.724;13.346;2023-11-19T11:06:50;6.50;;;4.55;;
51122;SDS011;37162;41.724;13.346;2023-11-19T11:09:16;7.47;;;4.55;;
51122;SDS011;37162;41.724;13.346;2023-11-19T11:11:45;6.38;;;4.20;;
51122;SDS011;37162;41.724;13.346;2023-11-19T11:14:12;7.32;;;4.85;;
51122;SDS011;37162;41.724;13.346;2023-11-19T11:16:44;6.57;;;4.72;;
51122;SDS011;37162;41.724;13.346;2023-11-19T11:19:11;7.00;;;4.47;;
51122;SDS011;37162;41.724;13.346;2023-11-19T11:21:40;7.40;;;4.88;;
51122;SDS011;37162;41.724;13.346;2023-11-19T11:24:20;11.20;;;6.07;;
51122;SDS011;37162;41.724;13.346;2023-11-19T11:27:13;9.48;;;6.90;;
51122;SDS011;37162;41.724;13.346;2023-11-19T11:33:08;12.65;;;6.18;;
51122;SDS011;37162;41.724;13.346;2023-11-19T11:38:21;12.18;;;5.95;;
51122;SDS011;37162;41.724;13.346;2023-11-19T11:43:44;8.32;;;5.47;;
51122;SDS011;37162;41.724;13.346;2023-11-19T11:48:55;11.68;;;5.88;;
51122;SDS011;37162;41.724;13.346;2023-11-19T11:54:11;10.20;;;6.13;;
51122;SDS011;37162;41.724;13.346;2023-11-19T11:56:42;9.38;;;5.97;;
51122;SDS011;37162;41.724;13.346;2023-11-19T11:59:27;9.05;;;5.07;;
51122;SDS011;37162;41.724;13.346;2023-11-19T12:02:18;6.53;;;4.68;;
51122;SDS011;37162;41.724;13.346;2023-11-19T12:04:48;8.18;;;5.00;;
51122;SDS011;37162;41.724;13.346;2023-11-19T12:07:18;7.72;;;5.55;;
51122;SDS011;37162;41.724;13.346;2023-11-19T12:12:33;9.05;;;5.60;;
51122;SDS011;37162;41.724;13.346;2023-11-19T12:19:59;9.57;;;5.80;;
51122;SDS011;37162;41.724;13.346;2023-11-19T12:22:30;9.57;;;4.95;;
51122;SDS011;37162;41.724;13.346;2023-11-19T12:24:56;7.20;;;5.00;;
51122;SDS011;37162;41.724;13.346;2023-11-19T12:27:21;7.75;;;4.43;;
51122;SDS011;37162;41.724;13.346;2023-11-19T12:29:47;8.25;;;4.90;;
51122;SDS011;37162;41.724;13.346;2023-11-19T12:32:13;8.00;;;4.97;;
51122;SDS011;37162;41.724;13.346;2023-11-19T12:34:39;8.90;;;5.05;;
51122;SDS011;37162;41.724;13.346;2023-11-19T12:37:05;12.15;;;4.95;;
51122;SDS011;37162;41.724;13.346;2023-11-19T12:39:30;23.08;;;5.57;;
51122;SDS011;37162;41.724;13.346;2023-11-19T12:41:56;14.70;;;4.60;;
51122;SDS011;37162;41.724;13.346;2023-11-19T12:44:24;7.53;;;4.47;;
51122;SDS011;37162;41.724;13.346;2023-11-19T12:47:03;7.72;;;4.15;;
51122;SDS011;37162;41.724;13.346;2023-11-19T12:49:29;7.65;;;4.00;;
51122;SDS011;37162;41.724;13.346;2023-11-19T12:51:55;9.20;;;4.35;;
51122;SDS011;37162;41.724;13.346;2023-11-19T12:54:31;13.82;;;4.57;;
51122;SDS011;37162;41.724;13.346;2023-11-19T12:57:00;9.82;;;4.60;;
51122;SDS011;37162;41.724;13.346;2023-11-19T12:59:26;9.77;;;4.18;;
51122;SDS011;37162;41.724;13.346;2023-11-19T13:01:58;12.88;;;4.20;;
51122;SDS011;37162;41.724;13.346;2023-11-19T13:04:31;7.18;;;3.92;;
51122;SDS011;37162;41.724;13.346;2023-11-19T13:06:57;8.35;;;4.30;;
51122;SDS011;37162;41.724;13.346;2023-11-19T13:09:23;6.70;;;3.80;;
51122;SDS011;37162;41.724;13.346;2023-11-19T13:11:49;8.10;;;4.45;;
51122;SDS011;37162;41.724;13.346;2023-11-19T13:14:16;8.38;;;4.28;;
51122;SDS011;37162;41.724;13.346;2023-11-19T13:16:41;4.63;;;3.22;;
51122;SDS011;37162;41.724;13.346;2023-11-19T13:19:07;6.40;;;3.67;;
51122;SDS011;37162;41.724;13.346;2023-11-19T13:21:36;5.22;;;3.72;;
51122;SDS011;37162;41.724;13.346;2023-11-19T13:24:02;11.07;;;4.32;;
51122;SDS011;37162;41.724;13.346;2023-11-19T13:26:28;5.38;;;3.35;;
51122;SDS011;37162;41.724;13.346;2023-11-19T13:28:54;5.53;;;3.13;;
51122;SDS011;37162;41.724;13.346;2023-11-19T13:31:19;10.57;;;3.80;;
51122;SDS011;37162;41.724;13.346;2023-11-19T13:33:45;4.47;;;3.13;;
51122;SDS011;37162;41.724;13.346;2023-11-19T13:36:10;5.15;;;2.90;;
51122;SDS011;37162;41.724;13.346;2023-11-19T13:38:36;5.38;;;3.20;;
51122;SDS011;37162;41.724;13.346;2023-11-19T13:41:05;4.32;;;2.95;;
51122;SDS011;37162;41.724;13.346;2023-11-19T13:43:31;5.05;;;3.15;;
51122;SDS011;37162;41.724;13.346;2023-11-19T13:45:57;4.25;;;2.75;;
51122;SDS011;37162;41.724;13.346;2023-11-19T13:48:25;4.38;;;2.67;;
51122;SDS011;37162;41.724;13.346;2023-11-19T13:50:52;4.43;;;2.63;;
51122;SDS011;37162;41.724;13.346;2023-11-19T13:53:18;5.68;;;3.00;;
51122;SDS011;37162;41.724;13.346;2023-11-19T13:55:43;3.90;;;2.55;;
51122;SDS011;37162;41.724;13.346;2023-11-19T13:58:09;4.32;;;2.67;;
51122;SDS011;37162;41.724;13.346;2023-11-19T14:00:35;4.47;;;2.60;;
51122;SDS011;37162;41.724;13.346;2023-11-19T14:03:01;3.85;;;2.53;;
51122;SDS011;37162;41.724;13.346;2023-11-19T14:05:27;5.18;;;2.63;;
51122;SDS011;37162;41.724;13.346;2023-11-19T14:07:53;3.63;;;2.20;;
51122;SDS011;37162;41.724;13.346;2023-11-19T14:10:20;2.97;;;2.42;;
51122;SDS011;37162;41.724;13.346;2023-11-19T14:12:46;3.80;;;2.33;;
51122;SDS011;37162;41.724;13.346;2023-11-19T14:15:11;4.57;;;2.38;;
51122;SDS011;37162;41.724;13.346;2023-11-19T14:17:42;3.58;;;2.30;;
51122;SDS011;37162;41.724;13.346;2023-11-19T14:20:07;4.50;;;2.40;;
51122;SDS011;37162;41.724;13.346;2023-11-19T14:22:40;3.75;;;2.35;;
51122;SDS011;37162;41.724;13.346;2023-11-19T14:25:09;3.85;;;2.15;;
51122;SDS011;37162;41.724;13.346;2023-11-19T14:27:36;5.25;;;3.10;;
51122;SDS011;37162;41.724;13.346;2023-11-19T14:30:04;3.70;;;2.47;;
51122;SDS011;37162;41.724;13.346;2023-11-19T14:32:31;5.93;;;3.00;;
51122;SDS011;37162;41.724;13.346;2023-11-19T14:34:56;4.10;;;2.00;;
51122;SDS011;37162;41.724;13.346;2023-11-19T14:37:22;3.22;;;1.98;;
51122;SDS011;37162;41.724;13.346;2023-11-19T14:39:47;3.25;;;2.38;;
51122;SDS011;37162;41.724;13.346;2023-11-19T14:42:15;3.20;;;2.10;;
51122;SDS011;37162;41.724;13.346;2023-11-19T14:44:41;3.95;;;2.33;;
51122;SDS011;37162;41.724;13.346;2023-11-19T14:47:07;2.97;;;2.20;;
51122;SDS011;37162;41.724;13.346;2023-11-19T14:49:34;3.17;;;2.15;;
51122;SDS011;37162;41.724;13.346;2023-11-19T14:52:00;4.13;;;2.40;;
51122;SDS011;37162;41.724;13.346;2023-11-19T14:54:25;3.45;;;2.70;;
51122;SDS011;37162;41.724;13.346;2023-11-19T14:58:43;7.30;;;3.55;;
51122;SDS011;37162;41.724;13.346;2023-11-19T15:01:13;8.50;;;4.00;;